sensor_id;sensor_type;location;lat;lon;timestamp;temperature;humidity
32366;DHT22;18837;46.832;16.838;2023-03-31T00:01:36;11.40;90.10
32366;DHT22;18837;46.832;16.838;2023-03-31T00:48:33;11.30;91.00
32366;DHT22;18837;46.832;16.838;2023-03-31T00:51:06;11.30;90.10
32366;DHT22;18837;46.832;16.838;2023-03-31T00:53:34;11.30;90.10
32366;DHT22;18837;46.832;16.838;2023-03-31T00:56:07;11.30;91.10
32366;DHT22;18837;46.832;16.838;2023-03-31T01:02:28;11.30;90.90
32366;DHT22;18837;46.832;16.838;2023-03-31T01:04:57;11.30;90.80
32366;DHT22;18837;46.832;16.838;2023-03-31T01:07:49;11.20;90.10
32366;DHT22;18837;46.832;16.838;2023-03-31T01:10:16;11.30;90.00
32366;DHT22;18837;46.832;16.838;2023-03-31T01:12:49;11.30;90.20
32366;DHT22;18837;46.832;16.838;2023-03-31T01:15:15;11.20;90.00
32366;DHT22;18837;46.832;16.838;2023-03-31T01:17:56;11.20;91.10
32366;DHT22;18837;46.832;16.838;2023-03-31T01:23:20;11.30;90.90
32366;DHT22;18837;46.832;16.838;2023-03-31T01:44:14;11.20;90.20
32366;DHT22;18837;46.832;16.838;2023-03-31T01:47:37;11.20;90.00
32366;DHT22;18837;46.832;16.838;2023-03-31T01:56:12;11.10;90.80
32366;DHT22;18837;46.832;16.838;2023-03-31T01:58:52;11.10;91.10
32366;DHT22;18837;46.832;16.838;2023-03-31T02:01:32;11.10;90.20
32366;DHT22;18837;46.832;16.838;2023-03-31T02:04:21;11.10;90.10
32366;DHT22;18837;46.832;16.838;2023-03-31T02:10:32;11.10;91.10
32366;DHT22;18837;46.832;16.838;2023-03-31T02:13:18;11.10;91.20
32366;DHT22;18837;46.832;16.838;2023-03-31T02:15:50;11.10;90.20
32366;DHT22;18837;46.832;16.838;2023-03-31T03:02:09;10.90;91.20
32366;DHT22;18837;46.832;16.838;2023-03-31T03:19:27;10.90;91.20
32366;DHT22;18837;46.832;16.838;2023-03-31T03:21:53;10.90;88.40
32366;DHT22;18837;46.832;16.838;2023-03-31T03:24:18;10.90;90.20
32366;DHT22;18837;46.832;16.838;2023-03-31T03:26:47;10.90;90.60
32366;DHT22;18837;46.832;16.838;2023-03-31T03:29:13;10.90;90.40
32366;DHT22;18837;46.832;16.838;2023-03-31T03:31:40;10.90;91.00
32366;DHT22;18837;46.832;16.838;2023-03-31T03:34:26;10.90;90.50
32366;DHT22;18837;46.832;16.838;2023-03-31T03:36:52;10.90;91.20
32366;DHT22;18837;46.832;16.838;2023-03-31T03:39:18;10.90;90.40
32366;DHT22;18837;46.832;16.838;2023-03-31T03:41:44;10.90;90.30
32366;DHT22;18837;46.832;16.838;2023-03-31T03:44:11;10.90;90.40
32366;DHT22;18837;46.832;16.838;2023-03-31T03:46:37;10.80;90.60
32366;DHT22;18837;46.832;16.838;2023-03-31T03:52:55;10.80;91.10
32366;DHT22;18837;46.832;16.838;2023-03-31T03:55:33;10.90;90.90
32366;DHT22;18837;46.832;16.838;2023-03-31T03:57:59;10.80;90.00
32366;DHT22;18837;46.832;16.838;2023-03-31T04:00:26;10.80;90.70
32366;DHT22;18837;46.832;16.838;2023-03-31T04:02:51;10.80;91.60
32366;DHT22;18837;46.832;16.838;2023-03-31T04:05:17;10.90;90.30
32366;DHT22;18837;46.832;16.838;2023-03-31T04:07:43;10.80;90.60
32366;DHT22;18837;46.832;16.838;2023-03-31T04:10:09;10.80;90.40
32366;DHT22;18837;46.832;16.838;2023-03-31T04:12:35;10.80;90.40
32366;DHT22;18837;46.832;16.838;2023-03-31T04:15:01;10.80;90.50
32366;DHT22;18837;46.832;16.838;2023-03-31T04:17:27;10.80;90.50
32366;DHT22;18837;46.832;16.838;2023-03-31T04:20:09;10.80;91.50
32366;DHT22;18837;46.832;16.838;2023-03-31T04:22:36;10.80;90.40
32366;DHT22;18837;46.832;16.838;2023-03-31T04:28:49;10.80;91.10
32366;DHT22;18837;46.832;16.838;2023-03-31T04:31:15;10.80;91.20
32366;DHT22;18837;46.832;16.838;2023-03-31T04:33:53;10.80;91.50
32366;DHT22;18837;46.832;16.838;2023-03-31T04:36:19;10.80;90.20
32366;DHT22;18837;46.832;16.838;2023-03-31T04:38:49;10.80;90.20
32366;DHT22;18837;46.832;16.838;2023-03-31T04:41:19;10.80;90.60
32366;DHT22;18837;46.832;16.838;2023-03-31T04:43:46;10.80;90.50
32366;DHT22;18837;46.832;16.838;2023-03-31T04:46:12;10.70;90.50
32366;DHT22;18837;46.832;16.838;2023-03-31T04:48:38;10.70;90.30
32366;DHT22;18837;46.832;16.838;2023-03-31T04:51:04;10.70;90.40
32366;DHT22;18837;46.832;16.838;2023-03-31T04:53:30;10.70;90.60
32366;DHT22;18837;46.832;16.838;2023-03-31T04:55:56;10.70;90.60
32366;DHT22;18837;46.832;16.838;2023-03-31T04:58:46;10.70;90.40
32366;DHT22;18837;46.832;16.838;2023-03-31T05:01:36;10.70;91.30
32366;DHT22;18837;46.832;16.838;2023-03-31T05:04:30;10.70;91.20
32366;DHT22;18837;46.832;16.838;2023-03-31T05:06:56;10.70;90.00
32366;DHT22;18837;46.832;16.838;2023-03-31T05:09:22;10.70;88.50
32366;DHT22;18837;46.832;16.838;2023-03-31T05:11:48;10.70;90.70
32366;DHT22;18837;46.832;16.838;2023-03-31T05:14:14;10.80;90.40
32366;DHT22;18837;46.832;16.838;2023-03-31T05:16:40;10.80;90.40
32366;DHT22;18837;46.832;16.838;2023-03-31T05:19:15;10.80;90.50
32366;DHT22;18837;46.832;16.838;2023-03-31T05:21:42;10.80;90.40
32366;DHT22;18837;46.832;16.838;2023-03-31T05:24:08;10.80;90.50
32366;DHT22;18837;46.832;16.838;2023-03-31T05:26:34;10.70;90.40
32366;DHT22;18837;46.832;16.838;2023-03-31T05:29:00;10.80;91.20
32366;DHT22;18837;46.832;16.838;2023-03-31T05:31:26;10.80;90.20
32366;DHT22;18837;46.832;16.838;2023-03-31T05:34:29;10.80;90.40
32366;DHT22;18837;46.832;16.838;2023-03-31T05:37:16;10.80;91.60
32366;DHT22;18837;46.832;16.838;2023-03-31T05:39:41;10.80;91.40
32366;DHT22;18837;46.832;16.838;2023-03-31T05:42:07;10.80;90.40
32366;DHT22;18837;46.832;16.838;2023-03-31T05:44:33;10.80;90.30
32366;DHT22;18837;46.832;16.838;2023-03-31T05:46:59;10.80;90.20
32366;DHT22;18837;46.832;16.838;2023-03-31T05:49:24;10.80;90.30
32366;DHT22;18837;46.832;16.838;2023-03-31T05:52:07;10.80;90.60
32366;DHT22;18837;46.832;16.838;2023-03-31T05:54:33;10.80;90.60
32366;DHT22;18837;46.832;16.838;2023-03-31T05:56:59;10.90;91.30
32366;DHT22;18837;46.832;16.838;2023-03-31T05:59:25;10.90;91.00
32366;DHT22;18837;46.832;16.838;2023-03-31T06:01:51;10.90;91.70
32366;DHT22;18837;46.832;16.838;2023-03-31T06:04:17;10.90;90.70
32366;DHT22;18837;46.832;16.838;2023-03-31T06:06:43;10.90;91.60
32366;DHT22;18837;46.832;16.838;2023-03-31T06:09:41;10.90;90.60
32366;DHT22;18837;46.832;16.838;2023-03-31T06:12:26;11.00;91.60
32366;DHT22;18837;46.832;16.838;2023-03-31T06:14:52;11.00;90.60
32366;DHT22;18837;46.832;16.838;2023-03-31T06:17:18;11.00;90.90
32366;DHT22;18837;46.832;16.838;2023-03-31T06:19:44;11.00;91.10
32366;DHT22;18837;46.832;16.838;2023-03-31T06:22:09;11.00;90.60
32366;DHT22;18837;46.832;16.838;2023-03-31T06:24:35;11.10;90.60
32366;DHT22;18837;46.832;16.838;2023-03-31T06:27:07;11.10;90.80
32366;DHT22;18837;46.832;16.838;2023-03-31T06:29:33;11.10;90.40
32366;DHT22;18837;46.832;16.838;2023-03-31T06:31:58;11.10;90.70
32366;DHT22;18837;46.832;16.838;2023-03-31T06:34:25;11.20;90.70
32366;DHT22;18837;46.832;16.838;2023-03-31T06:36:51;11.10;90.70
32366;DHT22;18837;46.832;16.838;2023-03-31T06:39:18;11.20;90.60
32366;DHT22;18837;46.832;16.838;2023-03-31T06:42:03;11.20;90.60
32366;DHT22;18837;46.832;16.838;2023-03-31T06:48:03;11.20;91.80
32366;DHT22;18837;46.832;16.838;2023-03-31T06:50:29;11.30;91.30
32366;DHT22;18837;46.832;16.838;2023-03-31T06:52:54;11.30;91.00
32366;DHT22;18837;46.832;16.838;2023-03-31T06:55:20;11.30;90.90
32366;DHT22;18837;46.832;16.838;2023-03-31T06:57:46;11.40;91.20
32366;DHT22;18837;46.832;16.838;2023-03-31T07:00:12;11.40;91.20
32366;DHT22;18837;46.832;16.838;2023-03-31T07:02:44;11.50;91.70
32366;DHT22;18837;46.832;16.838;2023-03-31T07:05:10;11.50;91.20
32366;DHT22;18837;46.832;16.838;2023-03-31T07:07:36;11.50;91.70
32366;DHT22;18837;46.832;16.838;2023-03-31T07:10:01;11.60;91.60
32366;DHT22;18837;46.832;16.838;2023-03-31T07:12:28;11.60;91.80
32366;DHT22;18837;46.832;16.838;2023-03-31T07:14:53;11.70;92.20
32366;DHT22;18837;46.832;16.838;2023-03-31T07:20:48;11.70;92.80
32366;DHT22;18837;46.832;16.838;2023-03-31T07:23:15;11.80;91.70
32366;DHT22;18837;46.832;16.838;2023-03-31T07:25:41;11.80;92.10
32366;DHT22;18837;46.832;16.838;2023-03-31T07:28:07;11.90;92.70
32366;DHT22;18837;46.832;16.838;2023-03-31T07:30:33;11.90;92.70
32366;DHT22;18837;46.832;16.838;2023-03-31T07:33:00;12.00;93.10
32366;DHT22;18837;46.832;16.838;2023-03-31T07:35:39;12.00;93.40
32366;DHT22;18837;46.832;16.838;2023-03-31T07:38:07;12.10;93.70
32366;DHT22;18837;46.832;16.838;2023-03-31T07:40:33;12.40;94.00
32366;DHT22;18837;46.832;16.838;2023-03-31T07:42:59;12.20;94.10
32366;DHT22;18837;46.832;16.838;2023-03-31T07:45:25;12.30;94.10
32366;DHT22;18837;46.832;16.838;2023-03-31T07:47:52;12.30;93.80
32366;DHT22;18837;46.832;16.838;2023-03-31T07:50:18;12.40;93.80
32366;DHT22;18837;46.832;16.838;2023-03-31T07:52:56;12.40;93.60
32366;DHT22;18837;46.832;16.838;2023-03-31T07:55:37;12.40;93.50
32366;DHT22;18837;46.832;16.838;2023-03-31T07:58:03;12.50;93.10
32366;DHT22;18837;46.832;16.838;2023-03-31T08:00:29;12.50;93.10
32366;DHT22;18837;46.832;16.838;2023-03-31T08:02:55;12.50;93.20
32366;DHT22;18837;46.832;16.838;2023-03-31T08:05:20;12.50;93.30
32366;DHT22;18837;46.832;16.838;2023-03-31T08:07:48;12.60;93.10
32366;DHT22;18837;46.832;16.838;2023-03-31T08:10:24;12.60;92.90
32366;DHT22;18837;46.832;16.838;2023-03-31T08:12:50;12.70;92.50
32366;DHT22;18837;46.832;16.838;2023-03-31T08:15:16;12.70;92.40
32366;DHT22;18837;46.832;16.838;2023-03-31T08:17:42;12.70;92.10
32366;DHT22;18837;46.832;16.838;2023-03-31T08:20:09;12.80;92.30
32366;DHT22;18837;46.832;16.838;2023-03-31T08:22:36;12.80;92.80
32366;DHT22;18837;46.832;16.838;2023-03-31T08:25:03;12.80;92.80
32366;DHT22;18837;46.832;16.838;2023-03-31T08:27:54;12.90;92.60
32366;DHT22;18837;46.832;16.838;2023-03-31T08:30:26;12.80;92.90
32366;DHT22;18837;46.832;16.838;2023-03-31T08:32:52;12.90;92.80
32366;DHT22;18837;46.832;16.838;2023-03-31T08:35:17;12.90;93.00
32366;DHT22;18837;46.832;16.838;2023-03-31T08:37:43;12.90;92.80
32366;DHT22;18837;46.832;16.838;2023-03-31T08:40:18;12.90;92.20
32366;DHT22;18837;46.832;16.838;2023-03-31T08:42:48;13.00;92.10
32366;DHT22;18837;46.832;16.838;2023-03-31T08:45:33;12.90;92.40
32366;DHT22;18837;46.832;16.838;2023-03-31T08:48:03;12.90;93.10
32366;DHT22;18837;46.832;16.838;2023-03-31T08:50:32;13.00;93.00
32366;DHT22;18837;46.832;16.838;2023-03-31T08:53:11;13.00;92.70
32366;DHT22;18837;46.832;16.838;2023-03-31T08:55:52;13.00;93.20
32366;DHT22;18837;46.832;16.838;2023-03-31T09:10:54;13.40;94.00
32366;DHT22;18837;46.832;16.838;2023-03-31T09:16:14;13.40;91.80
32366;DHT22;18837;46.832;16.838;2023-03-31T09:18:41;13.40;92.10
32366;DHT22;18837;46.832;16.838;2023-03-31T09:26:57;13.60;94.20
32366;DHT22;18837;46.832;16.838;2023-03-31T09:29:23;13.80;94.30
32366;DHT22;18837;46.832;16.838;2023-03-31T09:31:55;13.80;93.60
32366;DHT22;18837;46.832;16.838;2023-03-31T09:35:13;13.90;92.30
32366;DHT22;18837;46.832;16.838;2023-03-31T09:38:05;13.90;93.40
32366;DHT22;18837;46.832;16.838;2023-03-31T09:40:41;14.00;94.00
32366;DHT22;18837;46.832;16.838;2023-03-31T09:43:27;14.00;93.50
32366;DHT22;18837;46.832;16.838;2023-03-31T09:45:55;14.10;93.00
32366;DHT22;18837;46.832;16.838;2023-03-31T09:48:25;14.10;91.40
32366;DHT22;18837;46.832;16.838;2023-03-31T09:51:01;14.10;91.80
32366;DHT22;18837;46.832;16.838;2023-03-31T09:53:54;14.00;91.50
32366;DHT22;18837;46.832;16.838;2023-03-31T09:59:32;14.00;92.80
32366;DHT22;18837;46.832;16.838;2023-03-31T10:02:01;14.10;93.40
32366;DHT22;18837;46.832;16.838;2023-03-31T10:04:31;14.10;93.00
32366;DHT22;18837;46.832;16.838;2023-03-31T10:06:58;14.10;92.60
32366;DHT22;18837;46.832;16.838;2023-03-31T10:09:32;14.20;92.50
32366;DHT22;18837;46.832;16.838;2023-03-31T10:12:21;14.10;92.20
32366;DHT22;18837;46.832;16.838;2023-03-31T10:15:13;14.20;93.30
32366;DHT22;18837;46.832;16.838;2023-03-31T10:17:43;14.30;93.00
32366;DHT22;18837;46.832;16.838;2023-03-31T10:20:33;14.30;92.70
32366;DHT22;18837;46.832;16.838;2023-03-31T10:23:13;14.30;93.00
32366;DHT22;18837;46.832;16.838;2023-03-31T10:25:40;14.40;93.20
32366;DHT22;18837;46.832;16.838;2023-03-31T10:28:33;14.40;92.90
32366;DHT22;18837;46.832;16.838;2023-03-31T10:31:00;14.50;91.90
32366;DHT22;18837;46.832;16.838;2023-03-31T10:33:29;14.40;90.90
32366;DHT22;18837;46.832;16.838;2023-03-31T10:36:02;14.50;90.50
32366;DHT22;18837;46.832;16.838;2023-03-31T10:38:37;14.50;91.70
32366;DHT22;18837;46.832;16.838;2023-03-31T10:41:07;14.50;91.10
32366;DHT22;18837;46.832;16.838;2023-03-31T10:43:48;14.50;92.10
32366;DHT22;18837;46.832;16.838;2023-03-31T10:49:39;14.70;92.60
32366;DHT22;18837;46.832;16.838;2023-03-31T10:52:25;14.70;91.60
32366;DHT22;18837;46.832;16.838;2023-03-31T10:54:58;14.60;90.60
32366;DHT22;18837;46.832;16.838;2023-03-31T11:00:43;14.60;90.00
32366;DHT22;18837;46.832;16.838;2023-03-31T11:12:23;14.90;92.40
32366;DHT22;18837;46.832;16.838;2023-03-31T11:15:54;14.90;91.00
32366;DHT22;18837;46.832;16.838;2023-03-31T11:24:41;15.00;91.60
32366;DHT22;18837;46.832;16.838;2023-03-31T11:35:58;15.10;90.10
32366;DHT22;18837;46.832;16.838;2023-03-31T11:44:03;15.00;88.70
32366;DHT22;18837;46.832;16.838;2023-03-31T11:46:49;15.00;88.50
32366;DHT22;18837;46.832;16.838;2023-03-31T11:49:18;15.00;88.10
32366;DHT22;18837;46.832;16.838;2023-03-31T11:52:24;15.00;87.50
32366;DHT22;18837;46.832;16.838;2023-03-31T11:58:37;15.10;88.10
32366;DHT22;18837;46.832;16.838;2023-03-31T12:01:13;15.10;86.00
32366;DHT22;18837;46.832;16.838;2023-03-31T12:04:45;15.10;86.00
32366;DHT22;18837;46.832;16.838;2023-03-31T12:06:45;15.10;87.60
32366;DHT22;18837;46.832;16.838;2023-03-31T12:12:19;15.00;85.60
32366;DHT22;18837;46.832;16.838;2023-03-31T12:15:22;15.00;87.40
32366;DHT22;18837;46.832;16.838;2023-03-31T12:18:01;14.90;86.20
32366;DHT22;18837;46.832;16.838;2023-03-31T12:20:40;14.90;86.70
32366;DHT22;18837;46.832;16.838;2023-03-31T12:23:15;14.80;87.40
32366;DHT22;18837;46.832;16.838;2023-03-31T12:25:54;14.80;87.60
32366;DHT22;18837;46.832;16.838;2023-03-31T12:28:48;14.80;88.20
32366;DHT22;18837;46.832;16.838;2023-03-31T12:31:40;14.80;88.30
32366;DHT22;18837;46.832;16.838;2023-03-31T12:34:14;14.90;87.50
32366;DHT22;18837;46.832;16.838;2023-03-31T12:39:43;14.90;87.30
32366;DHT22;18837;46.832;16.838;2023-03-31T12:56:22;15.10;85.90
32366;DHT22;18837;46.832;16.838;2023-03-31T12:58:48;15.10;87.00
32366;DHT22;18837;46.832;16.838;2023-03-31T13:07:37;15.20;87.50
32366;DHT22;18837;46.832;16.838;2023-03-31T13:12:39;15.20;87.80
32366;DHT22;18837;46.832;16.838;2023-03-31T13:15:12;15.30;87.90
32366;DHT22;18837;46.832;16.838;2023-03-31T13:17:39;15.30;88.10
32366;DHT22;18837;46.832;16.838;2023-03-31T13:20:30;15.30;87.40
32366;DHT22;18837;46.832;16.838;2023-03-31T13:23:21;15.30;86.20
32366;DHT22;18837;46.832;16.838;2023-03-31T13:25:50;15.30;85.60
32366;DHT22;18837;46.832;16.838;2023-03-31T13:31:10;15.30;86.70
32366;DHT22;18837;46.832;16.838;2023-03-31T13:33:54;15.40;86.80
32366;DHT22;18837;46.832;16.838;2023-03-31T13:36:48;15.40;88.50
32366;DHT22;18837;46.832;16.838;2023-03-31T14:06:02;15.50;85.50
32366;DHT22;18837;46.832;16.838;2023-03-31T14:11:38;15.40;84.90
32366;DHT22;18837;46.832;16.838;2023-03-31T14:14:24;15.40;84.90
32366;DHT22;18837;46.832;16.838;2023-03-31T14:17:01;15.30;84.90
32366;DHT22;18837;46.832;16.838;2023-03-31T14:38:51;15.30;84.80
32366;DHT22;18837;46.832;16.838;2023-03-31T14:41:20;15.30;86.10
32366;DHT22;18837;46.832;16.838;2023-03-31T14:43:54;15.20;86.80
32366;DHT22;18837;46.832;16.838;2023-03-31T14:46:55;15.20;86.10
32366;DHT22;18837;46.832;16.838;2023-03-31T14:50:20;15.20;85.30
32366;DHT22;18837;46.832;16.838;2023-03-31T14:52:47;15.20;85.20
32366;DHT22;18837;46.832;16.838;2023-03-31T14:55:18;15.20;85.80
32366;DHT22;18837;46.832;16.838;2023-03-31T14:57:46;15.20;85.40
32366;DHT22;18837;46.832;16.838;2023-03-31T15:00:21;15.20;85.30
32366;DHT22;18837;46.832;16.838;2023-03-31T15:02:49;15.10;85.30
32366;DHT22;18837;46.832;16.838;2023-03-31T15:05:31;15.10;85.20
32366;DHT22;18837;46.832;16.838;2023-03-31T15:08:05;15.00;84.30
32366;DHT22;18837;46.832;16.838;2023-03-31T15:10:39;15.00;83.80
32366;DHT22;18837;46.832;16.838;2023-03-31T15:13:08;15.00;85.00
32366;DHT22;18837;46.832;16.838;2023-03-31T15:15:34;15.00;84.90
32366;DHT22;18837;46.832;16.838;2023-03-31T15:18:00;15.00;84.60
32366;DHT22;18837;46.832;16.838;2023-03-31T15:20:58;14.90;84.20
32366;DHT22;18837;46.832;16.838;2023-03-31T15:26:57;14.90;82.70
32366;DHT22;18837;46.832;16.838;2023-03-31T15:29:41;14.90;83.00
32366;DHT22;18837;46.832;16.838;2023-03-31T15:34:47;14.80;82.90
32366;DHT22;18837;46.832;16.838;2023-03-31T15:37:13;14.80;83.30
32366;DHT22;18837;46.832;16.838;2023-03-31T15:39:57;14.80;83.80
32366;DHT22;18837;46.832;16.838;2023-03-31T15:42:25;14.80;83.60
32366;DHT22;18837;46.832;16.838;2023-03-31T15:45:02;14.80;83.40
32366;DHT22;18837;46.832;16.838;2023-03-31T15:47:51;14.80;83.80
32366;DHT22;18837;46.832;16.838;2023-03-31T15:50:20;14.70;83.90
32366;DHT22;18837;46.832;16.838;2023-03-31T15:52:51;14.70;84.00
32366;DHT22;18837;46.832;16.838;2023-03-31T16:01:43;14.60;83.50
32366;DHT22;18837;46.832;16.838;2023-03-31T16:04:12;14.60;84.50
32366;DHT22;18837;46.832;16.838;2023-03-31T16:06:46;14.60;84.40
32366;DHT22;18837;46.832;16.838;2023-03-31T16:09:19;14.60;83.60
32366;DHT22;18837;46.832;16.838;2023-03-31T16:11:59;14.60;84.00
32366;DHT22;18837;46.832;16.838;2023-03-31T16:15:06;14.60;84.00
32366;DHT22;18837;46.832;16.838;2023-03-31T16:17:40;14.60;82.90
32366;DHT22;18837;46.832;16.838;2023-03-31T16:20:20;14.60;83.30
32366;DHT22;18837;46.832;16.838;2023-03-31T16:22:50;14.60;83.10
32366;DHT22;18837;46.832;16.838;2023-03-31T16:25:20;14.60;84.30
32366;DHT22;18837;46.832;16.838;2023-03-31T16:27:55;14.50;84.60
32366;DHT22;18837;46.832;16.838;2023-03-31T16:30:59;14.50;84.70
32366;DHT22;18837;46.832;16.838;2023-03-31T16:33:58;14.50;84.80
32366;DHT22;18837;46.832;16.838;2023-03-31T16:36:24;14.50;84.70
32366;DHT22;18837;46.832;16.838;2023-03-31T16:38:52;14.40;84.80
32366;DHT22;18837;46.832;16.838;2023-03-31T16:41:19;14.40;84.90
32366;DHT22;18837;46.832;16.838;2023-03-31T16:43:46;14.40;85.20
32366;DHT22;18837;46.832;16.838;2023-03-31T16:46:11;14.40;85.10
32366;DHT22;18837;46.832;16.838;2023-03-31T16:48:37;14.30;85.10
32366;DHT22;18837;46.832;16.838;2023-03-31T16:51:03;14.30;85.40
32366;DHT22;18837;46.832;16.838;2023-03-31T16:53:31;14.30;85.60
32366;DHT22;18837;46.832;16.838;2023-03-31T16:55:58;14.30;85.40
32366;DHT22;18837;46.832;16.838;2023-03-31T16:58:25;14.30;85.40
32366;DHT22;18837;46.832;16.838;2023-03-31T17:00:53;14.30;85.30
32366;DHT22;18837;46.832;16.838;2023-03-31T17:03:20;14.20;85.30
32366;DHT22;18837;46.832;16.838;2023-03-31T17:06:09;14.20;85.50
32366;DHT22;18837;46.832;16.838;2023-03-31T17:08:47;14.20;84.50
32366;DHT22;18837;46.832;16.838;2023-03-31T17:11:13;14.20;85.40
32366;DHT22;18837;46.832;16.838;2023-03-31T17:13:40;14.20;85.30
32366;DHT22;18837;46.832;16.838;2023-03-31T17:16:07;14.20;85.70
32366;DHT22;18837;46.832;16.838;2023-03-31T17:18:33;14.20;85.80
32366;DHT22;18837;46.832;16.838;2023-03-31T17:21:11;14.20;85.50
32366;DHT22;18837;46.832;16.838;2023-03-31T17:23:45;14.20;85.90
32366;DHT22;18837;46.832;16.838;2023-03-31T17:26:12;14.20;85.80
32366;DHT22;18837;46.832;16.838;2023-03-31T17:28:38;14.10;85.90
32366;DHT22;18837;46.832;16.838;2023-03-31T17:31:24;14.10;85.90
32366;DHT22;18837;46.832;16.838;2023-03-31T17:33:50;14.10;86.00
32366;DHT22;18837;46.832;16.838;2023-03-31T17:36:16;14.10;85.80
32366;DHT22;18837;46.832;16.838;2023-03-31T17:38:45;14.10;86.10
32366;DHT22;18837;46.832;16.838;2023-03-31T17:41:30;14.10;85.70
32366;DHT22;18837;46.832;16.838;2023-03-31T17:43:57;14.10;86.40
32366;DHT22;18837;46.832;16.838;2023-03-31T17:46:23;14.10;86.50
32366;DHT22;18837;46.832;16.838;2023-03-31T17:48:49;14.00;86.10
32366;DHT22;18837;46.832;16.838;2023-03-31T17:51:19;14.00;85.90
32366;DHT22;18837;46.832;16.838;2023-03-31T17:53:46;14.00;86.30
32366;DHT22;18837;46.832;16.838;2023-03-31T17:56:13;14.00;86.70
32366;DHT22;18837;46.832;16.838;2023-03-31T17:58:46;14.00;86.70
32366;DHT22;18837;46.832;16.838;2023-03-31T18:01:12;14.00;86.50
32366;DHT22;18837;46.832;16.838;2023-03-31T18:03:38;14.00;87.00
32366;DHT22;18837;46.832;16.838;2023-03-31T18:06:06;14.00;87.00
32366;DHT22;18837;46.832;16.838;2023-03-31T18:08:33;13.90;86.70
32366;DHT22;18837;46.832;16.838;2023-03-31T18:11:00;13.90;87.40
32366;DHT22;18837;46.832;16.838;2023-03-31T18:13:39;13.90;87.30
32366;DHT22;18837;46.832;16.838;2023-03-31T18:16:29;13.90;87.40
32366;DHT22;18837;46.832;16.838;2023-03-31T18:18:57;13.90;86.50
32366;DHT22;18837;46.832;16.838;2023-03-31T18:21:23;13.90;87.40
32366;DHT22;18837;46.832;16.838;2023-03-31T18:23:50;13.80;87.70
32366;DHT22;18837;46.832;16.838;2023-03-31T18:26:21;13.90;88.00
32366;DHT22;18837;46.832;16.838;2023-03-31T18:28:49;13.80;88.90
32366;DHT22;18837;46.832;16.838;2023-03-31T18:31:15;13.80;88.10
32366;DHT22;18837;46.832;16.838;2023-03-31T18:33:49;13.80;88.40
32366;DHT22;18837;46.832;16.838;2023-03-31T18:36:18;13.80;88.40
32366;DHT22;18837;46.832;16.838;2023-03-31T18:38:45;13.80;88.40
32366;DHT22;18837;46.832;16.838;2023-03-31T18:41:11;13.80;88.40
32366;DHT22;18837;46.832;16.838;2023-03-31T18:43:37;13.80;88.40
32366;DHT22;18837;46.832;16.838;2023-03-31T18:46:03;13.80;88.00
32366;DHT22;18837;46.832;16.838;2023-03-31T18:52:33;13.70;88.60
32366;DHT22;18837;46.832;16.838;2023-03-31T18:55:00;13.70;88.00
32366;DHT22;18837;46.832;16.838;2023-03-31T18:57:27;13.70;88.70
32366;DHT22;18837;46.832;16.838;2023-03-31T18:59:53;13.70;88.80
32366;DHT22;18837;46.832;16.838;2023-03-31T19:02:19;13.70;88.80
32366;DHT22;18837;46.832;16.838;2023-03-31T19:04:45;13.70;88.60
32366;DHT22;18837;46.832;16.838;2023-03-31T19:07:25;13.60;88.90
32366;DHT22;18837;46.832;16.838;2023-03-31T19:09:51;13.60;88.80
32366;DHT22;18837;46.832;16.838;2023-03-31T19:12:16;13.60;88.80
32366;DHT22;18837;46.832;16.838;2023-03-31T19:14:42;13.60;89.00
32366;DHT22;18837;46.832;16.838;2023-03-31T19:17:08;13.60;88.60
32366;DHT22;18837;46.832;16.838;2023-03-31T19:19:34;13.60;88.80
32366;DHT22;18837;46.832;16.838;2023-03-31T19:22:15;13.60;89.00
32366;DHT22;18837;46.832;16.838;2023-03-31T19:28:06;13.50;88.10
32366;DHT22;18837;46.832;16.838;2023-03-31T19:30:32;13.60;88.80
32366;DHT22;18837;46.832;16.838;2023-03-31T19:32:58;13.50;89.30
32366;DHT22;18837;46.832;16.838;2023-03-31T19:35:26;13.50;89.30
32366;DHT22;18837;46.832;16.838;2023-03-31T19:37:53;13.50;88.90
32366;DHT22;18837;46.832;16.838;2023-03-31T19:40:22;13.50;89.30
32366;DHT22;18837;46.832;16.838;2023-03-31T19:42:57;13.50;89.40
32366;DHT22;18837;46.832;16.838;2023-03-31T19:45:22;13.50;89.30
32366;DHT22;18837;46.832;16.838;2023-03-31T19:47:48;13.30;89.10
32366;DHT22;18837;46.832;16.838;2023-03-31T19:50:14;13.50;89.00
32366;DHT22;18837;46.832;16.838;2023-03-31T19:52:40;13.40;89.30
32366;DHT22;18837;46.832;16.838;2023-03-31T19:55:06;13.40;89.10
32366;DHT22;18837;46.832;16.838;2023-03-31T19:57:47;13.50;89.20
32366;DHT22;18837;46.832;16.838;2023-03-31T20:00:41;13.40;89.00
32366;DHT22;18837;46.832;16.838;2023-03-31T20:03:07;13.40;88.40
32366;DHT22;18837;46.832;16.838;2023-03-31T20:05:33;13.40;89.30
32366;DHT22;18837;46.832;16.838;2023-03-31T20:07:59;13.40;89.10
32366;DHT22;18837;46.832;16.838;2023-03-31T20:10:25;13.40;89.20
32366;DHT22;18837;46.832;16.838;2023-03-31T20:12:50;13.40;89.10
32366;DHT22;18837;46.832;16.838;2023-03-31T20:15:16;13.40;89.20
32366;DHT22;18837;46.832;16.838;2023-03-31T20:17:52;13.40;89.20
32366;DHT22;18837;46.832;16.838;2023-03-31T20:20:17;13.40;89.00
32366;DHT22;18837;46.832;16.838;2023-03-31T20:22:43;13.40;89.20
32366;DHT22;18837;46.832;16.838;2023-03-31T20:25:09;13.40;88.80
32366;DHT22;18837;46.832;16.838;2023-03-31T20:27:35;13.30;89.20
32366;DHT22;18837;46.832;16.838;2023-03-31T20:30:02;13.40;89.40
32366;DHT22;18837;46.832;16.838;2023-03-31T20:33:04;13.30;89.20
32366;DHT22;18837;46.832;16.838;2023-03-31T20:35:33;13.40;89.00
32366;DHT22;18837;46.832;16.838;2023-03-31T20:37:59;13.30;89.00
32366;DHT22;18837;46.832;16.838;2023-03-31T20:40:25;13.30;89.10
32366;DHT22;18837;46.832;16.838;2023-03-31T20:42:50;13.30;89.40
32366;DHT22;18837;46.832;16.838;2023-03-31T20:45:16;13.30;89.40
32366;DHT22;18837;46.832;16.838;2023-03-31T20:47:42;13.30;89.30
32366;DHT22;18837;46.832;16.838;2023-03-31T20:50:27;13.30;89.40
32366;DHT22;18837;46.832;16.838;2023-03-31T20:52:53;13.30;89.40
32366;DHT22;18837;46.832;16.838;2023-03-31T20:55:19;13.30;89.40
32366;DHT22;18837;46.832;16.838;2023-03-31T20:57:44;13.20;89.00
32366;DHT22;18837;46.832;16.838;2023-03-31T21:00:11;13.20;89.40
32366;DHT22;18837;46.832;16.838;2023-03-31T21:02:37;13.20;89.30
32366;DHT22;18837;46.832;16.838;2023-03-31T21:05:04;13.20;89.20